Aeroporto :
LOGIN :

Iscrizione | Disclaimer

   EN    FR    IT 

 










Sommario :    VFR   VFR Marginale   IFR   IFR Intensivo   IFR Molto Intensivo
Visibilità : 
Base nubi : 
>= 8 km
>= 3000ft
5 / 8 km
1000 / 3000 ft
1500m / 5 km
500 / 1000 ft
800 / 1500m
200 / 500 ft
< 800m
< 200 ft
Simboli :   Temporali  Nebbia  Neve Forte  Precipitazioni Forti  Vento > 20 kt
SIGMETs :   Varie  Temporali  Ghiacco  Turbolenza  Onda orograficha  Ceneri Vulcaniche







- Altitudine del aeroporto : 200 ft


EBBL - Klein Brogel AB

ULTIMO METAR :
  • 240655Z AUTO 33004KT 8000 SCT007/// BKN022/// BKN031/// 14/11 Q1024 GRN

METARs OBSOLETI :
  • 240625Z AUTO 35004KT 6000 BKN007/// OVC024/// 13/11 Q1024 GRN
  • 240555Z AUTO 32004KT 5000 OVC006/// 13/12 Q1024 YLO
  • 240525Z AUTO 30003KT 5000 BKN006/// BKN018/// 12/11 Q1024 YLO
  • 240522Z AUTO 29003KT 5000 BKN006/// BKN016/// BKN019/// 12/11 Q1024 YLO
  • 240455Z AUTO 28003KT 4700 BR BKN007/// OVC016/// 11/10 Q1024 GRN
  • 240425Z AUTO 27003KT 3900 BR BKN010/// 10/09 Q1023 GRN
  • 240403Z AUTO VRB02KT 2600 BR SCT130/// 09/09 Q1023 YLO

Previsioni scadute.
Nessun NOTAM noto per questo aeroporto.



MetMap, La meteo Aeronautica in un colpo d'occhio ! - Copyright ORBIFLY Dicembre 2007 - Disclaimer

ORBIFLY MET'MAP TEAM :

Programmazione e sviluppo : Alexandra Zaïnal
Concezione e sviluppo : Baudouin d'Aumeries
Co-Programmazione e sviluppo : Marc-Olivier Méhu
Supporto tecnico e logistico : Manuel Goepfert
Aiuto per la traduzione : Arnaldo La Scala

Contatto : metmap@orbifly.com




FONTI E CREDITI :

   NOAA